sensor_id;sensor_type;location;lat;lon;timestamp;temperature;humidity
21823;DHT22;11074;48.596;9.238;2022-09-16T00:00:22;15.60;99.90
21823;DHT22;11074;48.596;9.238;2022-09-16T00:02:52;15.60;99.90
21823;DHT22;11074;48.596;9.238;2022-09-16T00:05:19;15.60;99.90
21823;DHT22;11074;48.596;9.238;2022-09-16T00:07:45;15.60;99.90
21823;DHT22;11074;48.596;9.238;2022-09-16T00:10:11;15.60;99.90
21823;DHT22;11074;48.596;9.238;2022-09-16T00:12:37;15.60;99.90
21823;DHT22;11074;48.596;9.238;2022-09-16T00:15:04;15.60;99.90
21823;DHT22;11074;48.596;9.238;2022-09-16T00:17:30;15.60;99.90
21823;DHT22;11074;48.596;9.238;2022-09-16T00:19:57;15.50;99.90
21823;DHT22;11074;48.596;9.238;2022-09-16T00:22:23;15.60;99.90
21823;DHT22;11074;48.596;9.238;2022-09-16T00:24:49;15.60;99.90
21823;DHT22;11074;48.596;9.238;2022-09-16T00:27:15;15.60;99.90
21823;DHT22;11074;48.596;9.238;2022-09-16T00:29:41;15.60;99.90
21823;DHT22;11074;48.596;9.238;2022-09-16T00:32:06;15.60;99.90
21823;DHT22;11074;48.596;9.238;2022-09-16T00:34:32;15.60;99.90
21823;DHT22;11074;48.596;9.238;2022-09-16T00:36:58;15.50;99.90
21823;DHT22;11074;48.596;9.238;2022-09-16T00:39:24;15.60;99.90
21823;DHT22;11074;48.596;9.238;2022-09-16T00:41:50;15.60;99.90
21823;DHT22;11074;48.596;9.238;2022-09-16T00:47:49;15.60;99.90
21823;DHT22;11074;48.596;9.238;2022-09-16T00:50:30;15.60;99.90
21823;DHT22;11074;48.596;9.238;2022-09-16T00:53:26;15.70;99.90
21823;DHT22;11074;48.596;9.238;2022-09-16T00:55:56;15.70;99.90
21823;DHT22;11074;48.596;9.238;2022-09-16T00:58:46;15.60;99.90
21823;DHT22;11074;48.596;9.238;2022-09-16T01:01:15;15.60;99.90
21823;DHT22;11074;48.596;9.238;2022-09-16T01:03:48;15.60;99.90
21823;DHT22;11074;48.596;9.238;2022-09-16T01:06:18;15.50;99.90
21823;DHT22;11074;48.596;9.238;2022-09-16T01:08:48;15.50;99.90
21823;DHT22;11074;48.596;9.238;2022-09-16T01:11:15;15.50;99.90
21823;DHT22;11074;48.596;9.238;2022-09-16T01:13:42;15.60;99.90
21823;DHT22;11074;48.596;9.238;2022-09-16T01:24:43;15.60;99.90
21823;DHT22;11074;48.596;9.238;2022-09-16T01:27:43;15.60;99.90
21823;DHT22;11074;48.596;9.238;2022-09-16T01:30:52;15.60;99.90
21823;DHT22;11074;48.596;9.238;2022-09-16T01:36:44;15.60;99.90
21823;DHT22;11074;48.596;9.238;2022-09-16T01:39:34;15.60;99.90
21823;DHT22;11074;48.596;9.238;2022-09-16T01:42:18;15.60;99.90
21823;DHT22;11074;48.596;9.238;2022-09-16T01:48:03;15.50;99.90
21823;DHT22;11074;48.596;9.238;2022-09-16T01:50:50;15.50;99.90
21823;DHT22;11074;48.596;9.238;2022-09-16T01:53:26;15.50;99.90
21823;DHT22;11074;48.596;9.238;2022-09-16T01:56:25;15.50;99.90
21823;DHT22;11074;48.596;9.238;2022-09-16T01:59:42;15.40;99.90
21823;DHT22;11074;48.596;9.238;2022-09-16T02:02:19;15.40;99.90
21823;DHT22;11074;48.596;9.238;2022-09-16T02:04:52;15.40;99.90
21823;DHT22;11074;48.596;9.238;2022-09-16T02:07:25;15.40;99.90
21823;DHT22;11074;48.596;9.238;2022-09-16T02:09:59;15.40;99.90
21823;DHT22;11074;48.596;9.238;2022-09-16T02:12:35;15.40;99.90
21823;DHT22;11074;48.596;9.238;2022-09-16T02:15:07;15.40;99.90
21823;DHT22;11074;48.596;9.238;2022-09-16T02:17:46;15.40;99.90
21823;DHT22;11074;48.596;9.238;2022-09-16T02:20:22;15.40;99.90
21823;DHT22;11074;48.596;9.238;2022-09-16T02:22:59;15.30;99.90
21823;DHT22;11074;48.596;9.238;2022-09-16T02:25:32;15.20;99.90
21823;DHT22;11074;48.596;9.238;2022-09-16T02:28:05;15.20;99.90
21823;DHT22;11074;48.596;9.238;2022-09-16T02:30:40;15.20;99.90
21823;DHT22;11074;48.596;9.238;2022-09-16T02:33:12;15.30;99.90
21823;DHT22;11074;48.596;9.238;2022-09-16T02:35:42;15.30;99.90
21823;DHT22;11074;48.596;9.238;2022-09-16T02:38:25;15.30;99.90
21823;DHT22;11074;48.596;9.238;2022-09-16T02:40:59;15.30;99.90
21823;DHT22;11074;48.596;9.238;2022-09-16T02:43:27;15.30;99.90
21823;DHT22;11074;48.596;9.238;2022-09-16T02:48:58;15.30;99.90
21823;DHT22;11074;48.596;9.238;2022-09-16T02:54:51;15.30;99.90
21823;DHT22;11074;48.596;9.238;2022-09-16T02:57:25;15.30;99.90
21823;DHT22;11074;48.596;9.238;2022-09-16T02:59:52;15.30;99.90
21823;DHT22;11074;48.596;9.238;2022-09-16T03:02:19;15.30;99.90
21823;DHT22;11074;48.596;9.238;2022-09-16T03:04:45;15.20;99.90
21823;DHT22;11074;48.596;9.238;2022-09-16T03:07:11;15.20;99.90
21823;DHT22;11074;48.596;9.238;2022-09-16T03:09:42;15.20;99.90
21823;DHT22;11074;48.596;9.238;2022-09-16T03:15:13;15.10;99.90
21823;DHT22;11074;48.596;9.238;2022-09-16T03:18:16;15.10;99.90
21823;DHT22;11074;48.596;9.238;2022-09-16T03:26:32;15.20;99.90
21823;DHT22;11074;48.596;9.238;2022-09-16T03:29:15;15.20;99.90
21823;DHT22;11074;48.596;9.238;2022-09-16T03:32:00;15.20;99.90
21823;DHT22;11074;48.596;9.238;2022-09-16T03:34:39;15.20;99.90
21823;DHT22;11074;48.596;9.238;2022-09-16T03:37:12;15.30;99.90
21823;DHT22;11074;48.596;9.238;2022-09-16T03:39:41;15.30;99.90
21823;DHT22;11074;48.596;9.238;2022-09-16T03:42:12;15.20;99.90
21823;DHT22;11074;48.596;9.238;2022-09-16T03:44:39;15.20;99.90
21823;DHT22;11074;48.596;9.238;2022-09-16T03:47:08;15.20;99.90
21823;DHT22;11074;48.596;9.238;2022-09-16T03:49:35;15.10;99.90
21823;DHT22;11074;48.596;9.238;2022-09-16T03:52:01;15.10;99.90
21823;DHT22;11074;48.596;9.238;2022-09-16T03:54:30;15.10;99.90
21823;DHT22;11074;48.596;9.238;2022-09-16T03:56:56;15.10;99.90
21823;DHT22;11074;48.596;9.238;2022-09-16T03:59:22;15.10;99.90
21823;DHT22;11074;48.596;9.238;2022-09-16T04:01:49;15.10;99.90
21823;DHT22;11074;48.596;9.238;2022-09-16T04:04:15;15.10;99.90
21823;DHT22;11074;48.596;9.238;2022-09-16T04:06:40;15.10;99.90
21823;DHT22;11074;48.596;9.238;2022-09-16T04:09:10;15.10;99.90
21823;DHT22;11074;48.596;9.238;2022-09-16T04:11:37;15.20;99.90
21823;DHT22;11074;48.596;9.238;2022-09-16T04:14:05;15.20;99.90
21823;DHT22;11074;48.596;9.238;2022-09-16T04:16:31;15.20;99.90
21823;DHT22;11074;48.596;9.238;2022-09-16T04:18:57;15.20;99.90
21823;DHT22;11074;48.596;9.238;2022-09-16T04:21:23;15.20;99.90
21823;DHT22;11074;48.596;9.238;2022-09-16T04:23:50;15.20;99.90
21823;DHT22;11074;48.596;9.238;2022-09-16T04:26:16;15.10;99.90
21823;DHT22;11074;48.596;9.238;2022-09-16T04:28:42;15.10;99.90
21823;DHT22;11074;48.596;9.238;2022-09-16T04:31:13;15.10;99.90
21823;DHT22;11074;48.596;9.238;2022-09-16T04:33:40;15.00;99.90
21823;DHT22;11074;48.596;9.238;2022-09-16T04:36:10;15.10;99.90
21823;DHT22;11074;48.596;9.238;2022-09-16T04:38:38;15.10;99.90
21823;DHT22;11074;48.596;9.238;2022-09-16T04:41:11;15.00;99.90
21823;DHT22;11074;48.596;9.238;2022-09-16T04:43:39;15.00;99.90
21823;DHT22;11074;48.596;9.238;2022-09-16T04:46:05;15.10;99.90
21823;DHT22;11074;48.596;9.238;2022-09-16T04:48:32;15.10;99.90
21823;DHT22;11074;48.596;9.238;2022-09-16T04:51:10;15.10;99.90
21823;DHT22;11074;48.596;9.238;2022-09-16T04:53:37;15.10;99.90
21823;DHT22;11074;48.596;9.238;2022-09-16T04:56:10;15.10;99.90
21823;DHT22;11074;48.596;9.238;2022-09-16T04:58:43;15.10;99.90
21823;DHT22;11074;48.596;9.238;2022-09-16T05:01:19;15.10;99.90
21823;DHT22;11074;48.596;9.238;2022-09-16T05:03:51;15.10;99.90
21823;DHT22;11074;48.596;9.238;2022-09-16T05:06:20;15.00;99.90
21823;DHT22;11074;48.596;9.238;2022-09-16T05:08:49;15.00;99.90
21823;DHT22;11074;48.596;9.238;2022-09-16T05:11:18;15.00;99.90
21823;DHT22;11074;48.596;9.238;2022-09-16T05:13:45;15.00;99.90
21823;DHT22;11074;48.596;9.238;2022-09-16T05:16:13;15.10;99.90
21823;DHT22;11074;48.596;9.238;2022-09-16T05:18:42;15.00;99.90
21823;DHT22;11074;48.596;9.238;2022-09-16T05:21:10;15.00;99.90
21823;DHT22;11074;48.596;9.238;2022-09-16T05:23:39;15.00;99.90
21823;DHT22;11074;48.596;9.238;2022-09-16T05:26:07;15.00;99.90
21823;DHT22;11074;48.596;9.238;2022-09-16T05:28:35;15.00;99.90
21823;DHT22;11074;48.596;9.238;2022-09-16T05:31:28;15.00;99.90
21823;DHT22;11074;48.596;9.238;2022-09-16T05:34:01;15.10;99.90
21823;DHT22;11074;48.596;9.238;2022-09-16T05:36:34;15.10;99.90
21823;DHT22;11074;48.596;9.238;2022-09-16T05:39:01;15.10;99.90
21823;DHT22;11074;48.596;9.238;2022-09-16T05:41:28;15.20;99.90
21823;DHT22;11074;48.596;9.238;2022-09-16T05:43:56;15.20;99.90
21823;DHT22;11074;48.596;9.238;2022-09-16T05:46:23;15.20;99.90
21823;DHT22;11074;48.596;9.238;2022-09-16T05:48:49;15.20;99.90
21823;DHT22;11074;48.596;9.238;2022-09-16T05:51:18;15.20;99.90
21823;DHT22;11074;48.596;9.238;2022-09-16T05:53:46;15.10;99.90
21823;DHT22;11074;48.596;9.238;2022-09-16T05:56:19;15.10;99.90
21823;DHT22;11074;48.596;9.238;2022-09-16T05:58:51;15.20;99.90
21823;DHT22;11074;48.596;9.238;2022-09-16T06:01:28;15.10;99.90
21823;DHT22;11074;48.596;9.238;2022-09-16T06:04:00;15.10;99.90
21823;DHT22;11074;48.596;9.238;2022-09-16T06:06:34;15.10;99.90
21823;DHT22;11074;48.596;9.238;2022-09-16T06:09:05;15.20;99.90
21823;DHT22;11074;48.596;9.238;2022-09-16T06:11:37;15.10;99.90
21823;DHT22;11074;48.596;9.238;2022-09-16T06:14:04;15.10;99.90
21823;DHT22;11074;48.596;9.238;2022-09-16T06:16:31;15.10;99.90
21823;DHT22;11074;48.596;9.238;2022-09-16T06:18:58;15.10;99.90
21823;DHT22;11074;48.596;9.238;2022-09-16T06:21:25;15.00;99.90
21823;DHT22;11074;48.596;9.238;2022-09-16T06:23:52;15.00;99.90
21823;DHT22;11074;48.596;9.238;2022-09-16T06:26:20;15.10;99.90
21823;DHT22;11074;48.596;9.238;2022-09-16T06:28:47;15.10;99.90
21823;DHT22;11074;48.596;9.238;2022-09-16T06:33:51;15.10;99.90
21823;DHT22;11074;48.596;9.238;2022-09-16T06:36:26;15.10;99.90
21823;DHT22;11074;48.596;9.238;2022-09-16T06:38:56;15.10;99.90
21823;DHT22;11074;48.596;9.238;2022-09-16T06:41:23;15.10;99.90
21823;DHT22;11074;48.596;9.238;2022-09-16T06:43:49;15.20;99.90
21823;DHT22;11074;48.596;9.238;2022-09-16T06:46:24;15.20;99.90
21823;DHT22;11074;48.596;9.238;2022-09-16T06:48:52;15.10;99.90
21823;DHT22;11074;48.596;9.238;2022-09-16T06:51:26;15.10;99.90
21823;DHT22;11074;48.596;9.238;2022-09-16T06:54:01;15.10;99.90
21823;DHT22;11074;48.596;9.238;2022-09-16T06:56:28;15.00;99.90
21823;DHT22;11074;48.596;9.238;2022-09-16T06:58:54;14.90;99.90
21823;DHT22;11074;48.596;9.238;2022-09-16T07:01:23;15.00;99.90
21823;DHT22;11074;48.596;9.238;2022-09-16T07:03:52;15.00;99.90
21823;DHT22;11074;48.596;9.238;2022-09-16T07:06:20;15.00;99.90
21823;DHT22;11074;48.596;9.238;2022-09-16T07:08:47;15.00;99.90
21823;DHT22;11074;48.596;9.238;2022-09-16T07:11:19;15.00;99.90
21823;DHT22;11074;48.596;9.238;2022-09-16T07:13:47;15.00;99.90
21823;DHT22;11074;48.596;9.238;2022-09-16T07:16:19;15.00;99.90
21823;DHT22;11074;48.596;9.238;2022-09-16T07:18:50;14.90;99.90
21823;DHT22;11074;48.596;9.238;2022-09-16T07:21:19;14.90;99.90
21823;DHT22;11074;48.596;9.238;2022-09-16T07:23:47;14.90;99.90
21823;DHT22;11074;48.596;9.238;2022-09-16T07:26:18;14.90;99.90
21823;DHT22;11074;48.596;9.238;2022-09-16T07:28:46;14.90;99.90
21823;DHT22;11074;48.596;9.238;2022-09-16T07:31:21;14.90;99.90
21823;DHT22;11074;48.596;9.238;2022-09-16T07:33:53;14.90;99.90
21823;DHT22;11074;48.596;9.238;2022-09-16T07:36:23;14.90;99.90
21823;DHT22;11074;48.596;9.238;2022-09-16T07:38:51;14.80;99.90
21823;DHT22;11074;48.596;9.238;2022-09-16T07:41:20;14.90;99.90
21823;DHT22;11074;48.596;9.238;2022-09-16T07:43:48;14.90;99.90
21823;DHT22;11074;48.596;9.238;2022-09-16T07:46:16;14.90;99.90
21823;DHT22;11074;48.596;9.238;2022-09-16T07:48:46;15.00;99.90
21823;DHT22;11074;48.596;9.238;2022-09-16T07:51:15;14.90;99.90
21823;DHT22;11074;48.596;9.238;2022-09-16T07:53:46;14.90;99.90
21823;DHT22;11074;48.596;9.238;2022-09-16T07:56:13;14.90;99.90
21823;DHT22;11074;48.596;9.238;2022-09-16T07:58:41;14.80;99.90
21823;DHT22;11074;48.596;9.238;2022-09-16T08:01:08;14.80;99.90
21823;DHT22;11074;48.596;9.238;2022-09-16T08:03:35;14.80;99.90
21823;DHT22;11074;48.596;9.238;2022-09-16T08:06:04;14.80;99.90
21823;DHT22;11074;48.596;9.238;2022-09-16T08:08:35;14.80;99.90
21823;DHT22;11074;48.596;9.238;2022-09-16T08:11:01;14.80;99.90
21823;DHT22;11074;48.596;9.238;2022-09-16T08:13:30;14.80;99.90
21823;DHT22;11074;48.596;9.238;2022-09-16T08:16:02;14.80;99.90
21823;DHT22;11074;48.596;9.238;2022-09-16T08:18:30;14.80;99.90
21823;DHT22;11074;48.596;9.238;2022-09-16T08:20:56;14.80;99.90
21823;DHT22;11074;48.596;9.238;2022-09-16T08:23:24;14.80;99.90
21823;DHT22;11074;48.596;9.238;2022-09-16T08:25:56;14.80;99.90
21823;DHT22;11074;48.596;9.238;2022-09-16T08:28:23;14.80;99.90
21823;DHT22;11074;48.596;9.238;2022-09-16T08:30:49;14.80;99.90
21823;DHT22;11074;48.596;9.238;2022-09-16T08:33:16;14.70;99.90
21823;DHT22;11074;48.596;9.238;2022-09-16T08:36:01;14.70;99.90
21823;DHT22;11074;48.596;9.238;2022-09-16T08:38:30;14.70;99.90
21823;DHT22;11074;48.596;9.238;2022-09-16T08:41:06;14.70;99.90
21823;DHT22;11074;48.596;9.238;2022-09-16T08:46:49;14.80;99.90
21823;DHT22;11074;48.596;9.238;2022-09-16T08:51:56;14.80;99.90
21823;DHT22;11074;48.596;9.238;2022-09-16T08:54:33;14.90;99.90
21823;DHT22;11074;48.596;9.238;2022-09-16T08:57:05;14.90;99.90
21823;DHT22;11074;48.596;9.238;2022-09-16T08:59:42;14.90;99.90
21823;DHT22;11074;48.596;9.238;2022-09-16T09:04:47;14.90;99.90
21823;DHT22;11074;48.596;9.238;2022-09-16T09:10:44;14.90;99.90
21823;DHT22;11074;48.596;9.238;2022-09-16T09:13:58;14.90;99.90
21823;DHT22;11074;48.596;9.238;2022-09-16T09:31:28;14.90;99.90
21823;DHT22;11074;48.596;9.238;2022-09-16T09:37:36;14.90;99.90
21823;DHT22;11074;48.596;9.238;2022-09-16T09:42:59;14.90;99.90
21823;DHT22;11074;48.596;9.238;2022-09-16T09:45:39;14.90;99.90
21823;DHT22;11074;48.596;9.238;2022-09-16T09:48:17;14.90;99.90
21823;DHT22;11074;48.596;9.238;2022-09-16T09:50:51;14.90;99.90
21823;DHT22;11074;48.596;9.238;2022-09-16T09:53:23;14.90;99.90
21823;DHT22;11074;48.596;9.238;2022-09-16T09:56:19;15.00;99.90
21823;DHT22;11074;48.596;9.238;2022-09-16T09:59:11;15.00;99.90
21823;DHT22;11074;48.596;9.238;2022-09-16T10:01:39;15.00;99.90
21823;DHT22;11074;48.596;9.238;2022-09-16T10:04:15;15.00;99.90
21823;DHT22;11074;48.596;9.238;2022-09-16T10:06:42;15.10;99.90
21823;DHT22;11074;48.596;9.238;2022-09-16T10:09:13;15.10;99.90
21823;DHT22;11074;48.596;9.238;2022-09-16T10:11:57;15.10;99.90
21823;DHT22;11074;48.596;9.238;2022-09-16T10:14:31;15.10;99.90
21823;DHT22;11074;48.596;9.238;2022-09-16T10:17:05;15.00;99.90
21823;DHT22;11074;48.596;9.238;2022-09-16T10:22:29;15.10;99.90
21823;DHT22;11074;48.596;9.238;2022-09-16T10:24:59;15.10;99.90
21823;DHT22;11074;48.596;9.238;2022-09-16T10:27:32;15.30;99.90
21823;DHT22;11074;48.596;9.238;2022-09-16T10:30:17;15.30;99.90
21823;DHT22;11074;48.596;9.238;2022-09-16T10:32:56;15.40;99.90
21823;DHT22;11074;48.596;9.238;2022-09-16T10:35:36;15.40;99.90
21823;DHT22;11074;48.596;9.238;2022-09-16T10:38:16;15.40;99.90
21823;DHT22;11074;48.596;9.238;2022-09-16T10:40:51;15.40;99.90
21823;DHT22;11074;48.596;9.238;2022-09-16T10:43:19;15.40;99.90
21823;DHT22;11074;48.596;9.238;2022-09-16T10:45:49;15.40;99.90
21823;DHT22;11074;48.596;9.238;2022-09-16T10:48:19;15.40;99.90
21823;DHT22;11074;48.596;9.238;2022-09-16T10:50:59;15.40;99.90
21823;DHT22;11074;48.596;9.238;2022-09-16T10:53:38;15.30;99.90
21823;DHT22;11074;48.596;9.238;2022-09-16T10:56:15;15.30;99.90
21823;DHT22;11074;48.596;9.238;2022-09-16T10:58:43;15.20;99.90
21823;DHT22;11074;48.596;9.238;2022-09-16T11:01:17;15.20;99.90
21823;DHT22;11074;48.596;9.238;2022-09-16T11:04:18;15.20;99.90
21823;DHT22;11074;48.596;9.238;2022-09-16T11:07:30;15.20;99.90
21823;DHT22;11074;48.596;9.238;2022-09-16T11:10:28;15.20;99.90
21823;DHT22;11074;48.596;9.238;2022-09-16T11:13:47;15.30;99.90
21823;DHT22;11074;48.596;9.238;2022-09-16T11:16:46;15.20;99.90
21823;DHT22;11074;48.596;9.238;2022-09-16T11:19:45;15.30;99.90
21823;DHT22;11074;48.596;9.238;2022-09-16T11:22:46;15.20;99.90
21823;DHT22;11074;48.596;9.238;2022-09-16T11:26:11;15.30;99.90
21823;DHT22;11074;48.596;9.238;2022-09-16T11:31:58;15.30;99.90
21823;DHT22;11074;48.596;9.238;2022-09-16T11:38:24;15.30;99.90
21823;DHT22;11074;48.596;9.238;2022-09-16T11:41:32;15.30;99.90
21823;DHT22;11074;48.596;9.238;2022-09-16T11:47:09;15.40;99.90
21823;DHT22;11074;48.596;9.238;2022-09-16T11:53:25;15.50;99.90
21823;DHT22;11074;48.596;9.238;2022-09-16T11:55:57;15.50;99.90
21823;DHT22;11074;48.596;9.238;2022-09-16T11:59:08;15.50;99.90
21823;DHT22;11074;48.596;9.238;2022-09-16T12:01:49;15.50;99.90
21823;DHT22;11074;48.596;9.238;2022-09-16T12:04:35;15.60;99.90
21823;DHT22;11074;48.596;9.238;2022-09-16T12:07:23;15.60;99.90
21823;DHT22;11074;48.596;9.238;2022-09-16T12:10:11;15.60;99.90
21823;DHT22;11074;48.596;9.238;2022-09-16T12:12:48;15.60;99.90
21823;DHT22;11074;48.596;9.238;2022-09-16T12:15:24;15.60;99.90
21823;DHT22;11074;48.596;9.238;2022-09-16T12:18:11;15.60;99.90
21823;DHT22;11074;48.596;9.238;2022-09-16T12:20:59;15.70;99.90
21823;DHT22;11074;48.596;9.238;2022-09-16T12:23:37;15.70;99.90
21823;DHT22;11074;48.596;9.238;2022-09-16T12:26:19;15.80;99.90
21823;DHT22;11074;48.596;9.238;2022-09-16T12:29:03;16.10;99.90
21823;DHT22;11074;48.596;9.238;2022-09-16T12:31:53;16.30;99.90
21823;DHT22;11074;48.596;9.238;2022-09-16T12:34:32;16.40;99.90
21823;DHT22;11074;48.596;9.238;2022-09-16T12:37:30;16.50;99.90
21823;DHT22;11074;48.596;9.238;2022-09-16T12:40:01;16.60;99.90
21823;DHT22;11074;48.596;9.238;2022-09-16T12:46:00;16.50;99.90
21823;DHT22;11074;48.596;9.238;2022-09-16T12:52:24;16.10;99.90
21823;DHT22;11074;48.596;9.238;2022-09-16T12:55:07;16.10;99.90
21823;DHT22;11074;48.596;9.238;2022-09-16T13:03:38;16.00;99.90
21823;DHT22;11074;48.596;9.238;2022-09-16T13:06:21;16.00;99.90
21823;DHT22;11074;48.596;9.238;2022-09-16T13:09:25;16.00;99.90
21823;DHT22;11074;48.596;9.238;2022-09-16T13:12:06;16.10;99.90
21823;DHT22;11074;48.596;9.238;2022-09-16T13:14:59;16.10;99.90
21823;DHT22;11074;48.596;9.238;2022-09-16T13:17:35;16.10;99.90
21823;DHT22;11074;48.596;9.238;2022-09-16T13:23:07;16.10;99.90
21823;DHT22;11074;48.596;9.238;2022-09-16T13:25:50;16.10;99.90
21823;DHT22;11074;48.596;9.238;2022-09-16T13:38:47;16.40;99.90
21823;DHT22;11074;48.596;9.238;2022-09-16T13:49:54;17.10;99.90
21823;DHT22;11074;48.596;9.238;2022-09-16T13:52:30;17.20;99.90
21823;DHT22;11074;48.596;9.238;2022-09-16T13:55:21;17.30;99.90
21823;DHT22;11074;48.596;9.238;2022-09-16T14:01:18;17.00;99.90
21823;DHT22;11074;48.596;9.238;2022-09-16T14:15:33;16.80;99.90
21823;DHT22;11074;48.596;9.238;2022-09-16T14:18:02;16.70;99.90
21823;DHT22;11074;48.596;9.238;2022-09-16T14:20:28;16.70;99.90
21823;DHT22;11074;48.596;9.238;2022-09-16T14:23:15;16.80;99.90
21823;DHT22;11074;48.596;9.238;2022-09-16T14:25:43;16.90;99.90
21823;DHT22;11074;48.596;9.238;2022-09-16T14:28:35;16.90;99.90
21823;DHT22;11074;48.596;9.238;2022-09-16T14:31:06;17.00;99.90
21823;DHT22;11074;48.596;9.238;2022-09-16T14:36:19;17.20;99.90
21823;DHT22;11074;48.596;9.238;2022-09-16T14:38:56;17.40;99.90
21823;DHT22;11074;48.596;9.238;2022-09-16T14:41:37;17.60;99.90
21823;DHT22;11074;48.596;9.238;2022-09-16T14:44:20;17.80;99.90
21823;DHT22;11074;48.596;9.238;2022-09-16T14:49:39;17.80;99.90
21823;DHT22;11074;48.596;9.238;2022-09-16T14:52:19;17.90;99.90
21823;DHT22;11074;48.596;9.238;2022-09-16T14:54:47;17.90;99.90
21823;DHT22;11074;48.596;9.238;2022-09-16T14:57:22;17.80;99.90
21823;DHT22;11074;48.596;9.238;2022-09-16T14:59:57;17.70;99.90
21823;DHT22;11074;48.596;9.238;2022-09-16T15:02:40;17.60;99.90
21823;DHT22;11074;48.596;9.238;2022-09-16T15:05:20;17.70;99.90
21823;DHT22;11074;48.596;9.238;2022-09-16T15:08:20;17.70;99.90
21823;DHT22;11074;48.596;9.238;2022-09-16T15:10:56;17.60;99.90
21823;DHT22;11074;48.596;9.238;2022-09-16T15:13:26;17.90;99.90
21823;DHT22;11074;48.596;9.238;2022-09-16T15:16:09;17.80;99.90
21823;DHT22;11074;48.596;9.238;2022-09-16T15:18:38;17.80;99.90
21823;DHT22;11074;48.596;9.238;2022-09-16T15:32:42;17.70;99.90
21823;DHT22;11074;48.596;9.238;2022-09-16T15:35:28;17.80;99.90
21823;DHT22;11074;48.596;9.238;2022-09-16T15:41:26;17.90;99.90
21823;DHT22;11074;48.596;9.238;2022-09-16T15:43:55;18.10;99.90
21823;DHT22;11074;48.596;9.238;2022-09-16T15:46:50;18.00;99.90
21823;DHT22;11074;48.596;9.238;2022-09-16T15:49:36;17.90;99.90
21823;DHT22;11074;48.596;9.238;2022-09-16T15:55:40;17.90;99.90
21823;DHT22;11074;48.596;9.238;2022-09-16T15:58:23;17.90;99.90
21823;DHT22;11074;48.596;9.238;2022-09-16T16:04:11;17.70;99.90
21823;DHT22;11074;48.596;9.238;2022-09-16T16:10:35;17.50;99.90
21823;DHT22;11074;48.596;9.238;2022-09-16T16:16:07;17.40;99.90
21823;DHT22;11074;48.596;9.238;2022-09-16T16:22:25;17.30;99.90
21823;DHT22;11074;48.596;9.238;2022-09-16T16:24:54;17.30;99.90
21823;DHT22;11074;48.596;9.238;2022-09-16T16:30:49;17.20;99.90
21823;DHT22;11074;48.596;9.238;2022-09-16T16:33:15;17.20;99.90
21823;DHT22;11074;48.596;9.238;2022-09-16T16:35:40;17.10;99.90
21823;DHT22;11074;48.596;9.238;2022-09-16T16:38:06;17.10;99.90
21823;DHT22;11074;48.596;9.238;2022-09-16T16:44:07;17.10;99.90
21823;DHT22;11074;48.596;9.238;2022-09-16T16:46:36;17.10;99.90
21823;DHT22;11074;48.596;9.238;2022-09-16T16:52:49;17.10;99.90
21823;DHT22;11074;48.596;9.238;2022-09-16T16:55:16;17.10;99.90
21823;DHT22;11074;48.596;9.238;2022-09-16T16:57:42;17.10;99.90
21823;DHT22;11074;48.596;9.238;2022-09-16T17:00:09;17.00;99.90
21823;DHT22;11074;48.596;9.238;2022-09-16T17:02:37;16.90;99.90
21823;DHT22;11074;48.596;9.238;2022-09-16T17:08:41;16.90;99.90
21823;DHT22;11074;48.596;9.238;2022-09-16T17:11:09;16.90;99.90
21823;DHT22;11074;48.596;9.238;2022-09-16T17:13:41;16.80;99.90
21823;DHT22;11074;48.596;9.238;2022-09-16T17:16:10;16.80;99.90
21823;DHT22;11074;48.596;9.238;2022-09-16T17:18:39;16.80;99.90
21823;DHT22;11074;48.596;9.238;2022-09-16T17:21:11;16.70;99.90
21823;DHT22;11074;48.596;9.238;2022-09-16T17:23:40;16.60;99.90
21823;DHT22;11074;48.596;9.238;2022-09-16T17:26:07;16.60;99.90
21823;DHT22;11074;48.596;9.238;2022-09-16T17:28:37;16.60;99.90
21823;DHT22;11074;48.596;9.238;2022-09-16T17:33:46;16.50;99.90
21823;DHT22;11074;48.596;9.238;2022-09-16T17:36:14;16.50;99.90
21823;DHT22;11074;48.596;9.238;2022-09-16T17:39:16;16.40;99.90
21823;DHT22;11074;48.596;9.238;2022-09-16T17:41:48;16.40;99.90
21823;DHT22;11074;48.596;9.238;2022-09-16T17:44:28;16.40;99.90
21823;DHT22;11074;48.596;9.238;2022-09-16T17:47:27;16.30;99.90
21823;DHT22;11074;48.596;9.238;2022-09-16T17:49:59;16.30;99.90
21823;DHT22;11074;48.596;9.238;2022-09-16T17:55:48;16.10;99.90
21823;DHT22;11074;48.596;9.238;2022-09-16T17:58:17;16.10;99.90
21823;DHT22;11074;48.596;9.238;2022-09-16T18:00:50;16.10;99.90
21823;DHT22;11074;48.596;9.238;2022-09-16T18:03:17;16.00;99.90
21823;DHT22;11074;48.596;9.238;2022-09-16T18:05:44;16.10;99.90
21823;DHT22;11074;48.596;9.238;2022-09-16T18:08:11;16.10;99.90
21823;DHT22;11074;48.596;9.238;2022-09-16T18:10:36;16.10;99.90
21823;DHT22;11074;48.596;9.238;2022-09-16T18:13:02;15.90;99.90
21823;DHT22;11074;48.596;9.238;2022-09-16T18:15:28;15.80;99.90
21823;DHT22;11074;48.596;9.238;2022-09-16T18:17:54;15.80;99.90
21823;DHT22;11074;48.596;9.238;2022-09-16T18:20:20;15.70;99.90
21823;DHT22;11074;48.596;9.238;2022-09-16T18:22:46;15.70;99.90
21823;DHT22;11074;48.596;9.238;2022-09-16T18:25:13;15.60;99.90
21823;DHT22;11074;48.596;9.238;2022-09-16T18:27:38;15.70;99.90
21823;DHT22;11074;48.596;9.238;2022-09-16T18:30:04;15.70;99.90
21823;DHT22;11074;48.596;9.238;2022-09-16T18:32:30;15.80;99.90
21823;DHT22;11074;48.596;9.238;2022-09-16T18:34:56;15.80;99.90
21823;DHT22;11074;48.596;9.238;2022-09-16T18:37:22;15.80;99.90
21823;DHT22;11074;48.596;9.238;2022-09-16T18:39:48;15.80;99.90
21823;DHT22;11074;48.596;9.238;2022-09-16T18:42:14;15.70;99.90
21823;DHT22;11074;48.596;9.238;2022-09-16T18:44:39;15.80;99.90
21823;DHT22;11074;48.596;9.238;2022-09-16T18:47:05;15.70;99.90
21823;DHT22;11074;48.596;9.238;2022-09-16T18:49:31;15.70;99.90
21823;DHT22;11074;48.596;9.238;2022-09-16T18:51:57;15.60;99.90
21823;DHT22;11074;48.596;9.238;2022-09-16T18:54:27;15.60;99.90
21823;DHT22;11074;48.596;9.238;2022-09-16T18:56:58;15.60;99.90
21823;DHT22;11074;48.596;9.238;2022-09-16T18:59:29;15.60;99.90
21823;DHT22;11074;48.596;9.238;2022-09-16T19:01:59;15.60;99.90
21823;DHT22;11074;48.596;9.238;2022-09-16T19:04:29;15.50;99.90
21823;DHT22;11074;48.596;9.238;2022-09-16T19:07:01;15.60;99.90
21823;DHT22;11074;48.596;9.238;2022-09-16T19:09:32;15.40;99.90
21823;DHT22;11074;48.596;9.238;2022-09-16T19:12:08;15.40;99.90
21823;DHT22;11074;48.596;9.238;2022-09-16T19:14:35;15.40;99.90
21823;DHT22;11074;48.596;9.238;2022-09-16T19:17:02;15.30;99.90
21823;DHT22;11074;48.596;9.238;2022-09-16T19:19:28;15.30;99.90
21823;DHT22;11074;48.596;9.238;2022-09-16T19:21:54;15.20;99.90
21823;DHT22;11074;48.596;9.238;2022-09-16T19:24:22;15.20;99.90